sensor_id;sensor_type;location;lat;lon;timestamp;temperature;humidity
75517;DHT22;64097;52.548;13.406;2023-06-26T06:03:33;27.20;55.00
75517;DHT22;64097;52.548;13.406;2023-06-26T06:05:59;27.20;54.90
75517;DHT22;64097;52.548;13.406;2023-06-26T06:08:24;27.20;54.90
75517;DHT22;64097;52.548;13.406;2023-06-26T06:10:50;27.30;54.80
75517;DHT22;64097;52.548;13.406;2023-06-26T06:13:16;27.30;54.60
75517;DHT22;64097;52.548;13.406;2023-06-26T06:15:41;27.30;54.60
75517;DHT22;64097;52.548;13.406;2023-06-26T06:18:07;27.40;54.50
75517;DHT22;64097;52.548;13.406;2023-06-26T06:20:33;27.40;54.40
75517;DHT22;64097;52.548;13.406;2023-06-26T06:22:59;27.40;54.30
75517;DHT22;64097;52.548;13.406;2023-06-26T06:25:24;27.50;54.20
75517;DHT22;64097;52.548;13.406;2023-06-26T06:27:50;27.50;54.00
75517;DHT22;64097;52.548;13.406;2023-06-26T06:30:16;27.50;53.80
75517;DHT22;64097;52.548;13.406;2023-06-26T06:32:41;27.60;53.80
75517;DHT22;64097;52.548;13.406;2023-06-26T06:35:07;27.60;53.60
75517;DHT22;64097;52.548;13.406;2023-06-26T06:37:36;27.70;53.30
75517;DHT22;64097;52.548;13.406;2023-06-26T06:40:03;27.70;53.20
75517;DHT22;64097;52.548;13.406;2023-06-26T06:42:29;27.70;53.00
75517;DHT22;64097;52.548;13.406;2023-06-26T06:44:55;27.70;52.90
75517;DHT22;64097;52.548;13.406;2023-06-26T06:47:21;27.80;52.80
75517;DHT22;64097;52.548;13.406;2023-06-26T06:49:46;27.80;52.80
75517;DHT22;64097;52.548;13.406;2023-06-26T06:52:12;27.80;52.70
75517;DHT22;64097;52.548;13.406;2023-06-26T06:54:59;27.90;52.70
75517;DHT22;64097;52.548;13.406;2023-06-26T06:57:30;27.90;52.50
75517;DHT22;64097;52.548;13.406;2023-06-26T06:59:56;27.90;52.40
75517;DHT22;64097;52.548;13.406;2023-06-26T07:02:22;28.00;52.40
75517;DHT22;64097;52.548;13.406;2023-06-26T07:04:47;28.00;52.30
75517;DHT22;64097;52.548;13.406;2023-06-26T07:07:13;28.00;52.20
75517;DHT22;64097;52.548;13.406;2023-06-26T07:09:39;28.10;52.20
75517;DHT22;64097;52.548;13.406;2023-06-26T07:12:05;28.10;52.10
75517;DHT22;64097;52.548;13.406;2023-06-26T07:14:31;28.10;52.00
75517;DHT22;64097;52.548;13.406;2023-06-26T07:16:56;28.20;51.80
75517;DHT22;64097;52.548;13.406;2023-06-26T07:19:22;28.20;51.70
75517;DHT22;64097;52.548;13.406;2023-06-26T07:21:48;28.30;51.60
75517;DHT22;64097;52.548;13.406;2023-06-26T07:24:14;28.20;51.40
75517;DHT22;64097;52.548;13.406;2023-06-26T07:26:40;28.30;51.40
75517;DHT22;64097;52.548;13.406;2023-06-26T07:29:06;28.30;51.40
75517;DHT22;64097;52.548;13.406;2023-06-26T07:31:32;28.30;51.20
75517;DHT22;64097;52.548;13.406;2023-06-26T07:33:58;28.40;51.20
75517;DHT22;64097;52.548;13.406;2023-06-26T07:36:23;28.40;51.10
75517;DHT22;64097;52.548;13.406;2023-06-26T07:38:49;28.50;50.90
75517;DHT22;64097;52.548;13.406;2023-06-26T07:41:14;28.50;50.80
75517;DHT22;64097;52.548;13.406;2023-06-26T07:43:40;28.50;50.80
75517;DHT22;64097;52.548;13.406;2023-06-26T07:46:06;28.60;50.60
75517;DHT22;64097;52.548;13.406;2023-06-26T07:48:31;28.60;50.50
75517;DHT22;64097;52.548;13.406;2023-06-26T07:50:57;28.70;50.50
75517;DHT22;64097;52.548;13.406;2023-06-26T07:53:23;28.70;50.10
75517;DHT22;64097;52.548;13.406;2023-06-26T07:55:48;28.70;49.90
75517;DHT22;64097;52.548;13.406;2023-06-26T07:58:14;28.80;50.00
75517;DHT22;64097;52.548;13.406;2023-06-26T08:00:40;28.80;49.60
75517;DHT22;64097;52.548;13.406;2023-06-26T08:03:06;28.80;49.30
75517;DHT22;64097;52.548;13.406;2023-06-26T08:05:32;28.80;49.20
75517;DHT22;64097;52.548;13.406;2023-06-26T08:07:58;28.90;49.00
75517;DHT22;64097;52.548;13.406;2023-06-26T08:10:23;28.90;49.20
75517;DHT22;64097;52.548;13.406;2023-06-26T08:12:49;28.90;48.90
75517;DHT22;64097;52.548;13.406;2023-06-26T08:15:16;29.00;48.80
75517;DHT22;64097;52.548;13.406;2023-06-26T08:17:42;29.00;48.60
75517;DHT22;64097;52.548;13.406;2023-06-26T08:20:08;29.10;48.50
75517;DHT22;64097;52.548;13.406;2023-06-26T08:22:34;29.10;48.30
75517;DHT22;64097;52.548;13.406;2023-06-26T08:24:59;29.10;47.80
75517;DHT22;64097;52.548;13.406;2023-06-26T08:27:25;29.10;47.80
75517;DHT22;64097;52.548;13.406;2023-06-26T08:29:51;29.20;47.80
75517;DHT22;64097;52.548;13.406;2023-06-26T08:32:17;29.20;47.70
75517;DHT22;64097;52.548;13.406;2023-06-26T08:34:42;29.30;47.50
75517;DHT22;64097;52.548;13.406;2023-06-26T08:37:08;29.30;47.60
75517;DHT22;64097;52.548;13.406;2023-06-26T08:39:36;29.40;47.40
75517;DHT22;64097;52.548;13.406;2023-06-26T08:42:02;29.40;47.40
75517;DHT22;64097;52.548;13.406;2023-06-26T08:44:28;29.40;46.70
75517;DHT22;64097;52.548;13.406;2023-06-26T08:46:54;29.40;46.30
75517;DHT22;64097;52.548;13.406;2023-06-26T08:52:23;29.50;45.50
75517;DHT22;64097;52.548;13.406;2023-06-26T08:54:56;29.60;45.80
75517;DHT22;64097;52.548;13.406;2023-06-26T08:57:23;29.60;45.50
75517;DHT22;64097;52.548;13.406;2023-06-26T08:59:50;29.60;45.50
75517;DHT22;64097;52.548;13.406;2023-06-26T09:02:17;29.60;44.70
75517;DHT22;64097;52.548;13.406;2023-06-26T09:04:43;29.70;44.50
75517;DHT22;64097;52.548;13.406;2023-06-26T09:07:08;29.70;44.80
75517;DHT22;64097;52.548;13.406;2023-06-26T09:09:35;29.70;44.70
75517;DHT22;64097;52.548;13.406;2023-06-26T09:12:04;29.80;44.90
75517;DHT22;64097;52.548;13.406;2023-06-26T09:14:30;29.80;44.80
75517;DHT22;64097;52.548;13.406;2023-06-26T09:16:56;29.90;44.20
75517;DHT22;64097;52.548;13.406;2023-06-26T09:19:22;29.90;44.30
75517;DHT22;64097;52.548;13.406;2023-06-26T09:21:50;29.90;44.30
75517;DHT22;64097;52.548;13.406;2023-06-26T09:24:16;30.00;43.80
75517;DHT22;64097;52.548;13.406;2023-06-26T09:26:42;30.00;43.80
75517;DHT22;64097;52.548;13.406;2023-06-26T09:29:09;30.00;43.30
75517;DHT22;64097;52.548;13.406;2023-06-26T09:31:37;30.00;43.50
75517;DHT22;64097;52.548;13.406;2023-06-26T09:34:03;30.10;43.20
75517;DHT22;64097;52.548;13.406;2023-06-26T09:36:29;30.10;43.20
75517;DHT22;64097;52.548;13.406;2023-06-26T09:39:02;30.10;42.80
75517;DHT22;64097;52.548;13.406;2023-06-26T09:41:30;30.20;43.10
75517;DHT22;64097;52.548;13.406;2023-06-26T09:43:58;30.20;43.00
75517;DHT22;64097;52.548;13.406;2023-06-26T09:46:30;30.20;42.60
75517;DHT22;64097;52.548;13.406;2023-06-26T09:49:08;30.30;42.70
75517;DHT22;64097;52.548;13.406;2023-06-26T09:51:35;30.30;42.60
75517;DHT22;64097;52.548;13.406;2023-06-26T09:54:02;30.40;42.90
75517;DHT22;64097;52.548;13.406;2023-06-26T09:56:29;30.40;42.50
75517;DHT22;64097;52.548;13.406;2023-06-26T09:59:00;30.40;42.40
75517;DHT22;64097;52.548;13.406;2023-06-26T10:01:30;30.40;42.10
75517;DHT22;64097;52.548;13.406;2023-06-26T10:03:56;30.50;42.20
75517;DHT22;64097;52.548;13.406;2023-06-26T10:06:36;30.50;42.10
75517;DHT22;64097;52.548;13.406;2023-06-26T10:09:03;30.50;41.90
75517;DHT22;64097;52.548;13.406;2023-06-26T10:11:40;30.50;41.70
75517;DHT22;64097;52.548;13.406;2023-06-26T10:14:07;30.60;41.80
75517;DHT22;64097;52.548;13.406;2023-06-26T10:16:35;30.60;41.60
75517;DHT22;64097;52.548;13.406;2023-06-26T10:19:06;30.60;41.60
75517;DHT22;64097;52.548;13.406;2023-06-26T10:21:34;30.70;41.70
75517;DHT22;64097;52.548;13.406;2023-06-26T10:24:04;30.70;41.90
75517;DHT22;64097;52.548;13.406;2023-06-26T10:26:31;30.70;41.00
75517;DHT22;64097;52.548;13.406;2023-06-26T10:28:59;30.80;41.50
75517;DHT22;64097;52.548;13.406;2023-06-26T10:31:27;30.80;41.50
75517;DHT22;64097;52.548;13.406;2023-06-26T10:33:54;30.80;41.60
75517;DHT22;64097;52.548;13.406;2023-06-26T10:36:27;30.90;41.70
75517;DHT22;64097;52.548;13.406;2023-06-26T10:39:03;30.90;41.80
75517;DHT22;64097;52.548;13.406;2023-06-26T10:41:39;31.00;41.90
75517;DHT22;64097;52.548;13.406;2023-06-26T10:44:08;31.00;41.70
75517;DHT22;64097;52.548;13.406;2023-06-26T10:46:51;31.00;41.60
75517;DHT22;64097;52.548;13.406;2023-06-26T10:49:18;31.00;41.30
75517;DHT22;64097;52.548;13.406;2023-06-26T10:51:51;31.00;41.20
75517;DHT22;64097;52.548;13.406;2023-06-26T10:54:18;31.10;40.90
75517;DHT22;64097;52.548;13.406;2023-06-26T10:56:48;31.10;41.10
75517;DHT22;64097;52.548;13.406;2023-06-26T10:59:20;31.10;41.20
75517;DHT22;64097;52.548;13.406;2023-06-26T11:01:54;31.10;41.20
75517;DHT22;64097;52.548;13.406;2023-06-26T11:04:40;31.10;41.30
75517;DHT22;64097;52.548;13.406;2023-06-26T11:07:25;31.20;41.40
75517;DHT22;64097;52.548;13.406;2023-06-26T11:09:59;31.20;41.10
75517;DHT22;64097;52.548;13.406;2023-06-26T11:12:37;31.20;41.00
75517;DHT22;64097;52.548;13.406;2023-06-26T11:15:08;31.20;41.30
75517;DHT22;64097;52.548;13.406;2023-06-26T11:17:35;31.30;41.10
75517;DHT22;64097;52.548;13.406;2023-06-26T11:20:01;31.30;41.10
75517;DHT22;64097;52.548;13.406;2023-06-26T11:22:27;31.30;40.80
75517;DHT22;64097;52.548;13.406;2023-06-26T11:24:53;31.40;40.60
75517;DHT22;64097;52.548;13.406;2023-06-26T11:27:19;31.40;40.60
75517;DHT22;64097;52.548;13.406;2023-06-26T11:29:49;31.50;40.40
75517;DHT22;64097;52.548;13.406;2023-06-26T11:32:17;31.60;40.60
75517;DHT22;64097;52.548;13.406;2023-06-26T11:34:43;31.60;40.20
75517;DHT22;64097;52.548;13.406;2023-06-26T11:37:09;31.70;40.10
75517;DHT22;64097;52.548;13.406;2023-06-26T11:39:35;31.70;40.10
75517;DHT22;64097;52.548;13.406;2023-06-26T11:42:02;31.70;39.70
75517;DHT22;64097;52.548;13.406;2023-06-26T11:44:31;31.70;39.80
75517;DHT22;64097;52.548;13.406;2023-06-26T11:46:57;31.70;39.80
75517;DHT22;64097;52.548;13.406;2023-06-26T11:49:23;31.70;39.80
75517;DHT22;64097;52.548;13.406;2023-06-26T11:51:51;31.70;40.50
75517;DHT22;64097;52.548;13.406;2023-06-26T11:54:25;31.80;40.10
75517;DHT22;64097;52.548;13.406;2023-06-26T11:56:56;31.80;39.90
75517;DHT22;64097;52.548;13.406;2023-06-26T11:59:22;31.90;39.90
75517;DHT22;64097;52.548;13.406;2023-06-26T12:01:50;31.90;39.60
75517;DHT22;64097;52.548;13.406;2023-06-26T12:04:17;31.90;39.60
75517;DHT22;64097;52.548;13.406;2023-06-26T12:06:51;31.90;39.70
75517;DHT22;64097;52.548;13.406;2023-06-26T12:09:20;32.00;39.70
75517;DHT22;64097;52.548;13.406;2023-06-26T12:11:48;32.00;40.40
75517;DHT22;64097;52.548;13.406;2023-06-26T12:14:17;32.10;39.30
75517;DHT22;64097;52.548;13.406;2023-06-26T12:16:44;32.10;39.30
75517;DHT22;64097;52.548;13.406;2023-06-26T12:19:09;32.10;39.20
75517;DHT22;64097;52.548;13.406;2023-06-26T12:24:08;32.10;38.90
75517;DHT22;64097;52.548;13.406;2023-06-26T12:26:34;32.20;39.20
75517;DHT22;64097;52.548;13.406;2023-06-26T12:29:18;32.20;39.20
75517;DHT22;64097;52.548;13.406;2023-06-26T12:31:51;32.20;39.20
75517;DHT22;64097;52.548;13.406;2023-06-26T12:34:26;32.20;39.20
75517;DHT22;64097;52.548;13.406;2023-06-26T12:36:52;32.20;39.10
75517;DHT22;64097;52.548;13.406;2023-06-26T12:39:20;32.30;38.90
75517;DHT22;64097;52.548;13.406;2023-06-26T12:41:59;32.30;38.70
75517;DHT22;64097;52.548;13.406;2023-06-26T12:44:29;32.30;38.20
75517;DHT22;64097;52.548;13.406;2023-06-26T12:47:00;32.30;37.90
75517;DHT22;64097;52.548;13.406;2023-06-26T12:49:37;32.30;37.80
75517;DHT22;64097;52.548;13.406;2023-06-26T12:52:06;32.30;37.90
75517;DHT22;64097;52.548;13.406;2023-06-26T12:54:37;32.30;38.20
75517;DHT22;64097;52.548;13.406;2023-06-26T12:57:03;32.30;38.20
75517;DHT22;64097;52.548;13.406;2023-06-26T12:59:30;32.40;38.20
75517;DHT22;64097;52.548;13.406;2023-06-26T13:01:57;32.40;38.20
75517;DHT22;64097;52.548;13.406;2023-06-26T13:04:22;32.40;38.30
75517;DHT22;64097;52.548;13.406;2023-06-26T13:06:49;32.40;38.40
75517;DHT22;64097;52.548;13.406;2023-06-26T13:09:15;32.40;38.50
75517;DHT22;64097;52.548;13.406;2023-06-26T13:11:41;32.40;38.20
75517;DHT22;64097;52.548;13.406;2023-06-26T13:14:07;32.40;38.30
75517;DHT22;64097;52.548;13.406;2023-06-26T13:16:33;32.40;38.30
75517;DHT22;64097;52.548;13.406;2023-06-26T13:18:59;32.40;38.60
75517;DHT22;64097;52.548;13.406;2023-06-26T13:21:27;32.40;38.20
75517;DHT22;64097;52.548;13.406;2023-06-26T13:23:52;32.40;38.30
75517;DHT22;64097;52.548;13.406;2023-06-26T13:26:19;32.40;38.30
75517;DHT22;64097;52.548;13.406;2023-06-26T13:28:47;32.50;38.40
75517;DHT22;64097;52.548;13.406;2023-06-26T13:31:13;32.40;38.10
75517;DHT22;64097;52.548;13.406;2023-06-26T13:33:39;32.40;38.10
75517;DHT22;64097;52.548;13.406;2023-06-26T13:36:05;32.40;38.20
75517;DHT22;64097;52.548;13.406;2023-06-26T13:38:33;32.40;38.50
75517;DHT22;64097;52.548;13.406;2023-06-26T13:41:00;32.40;38.60
75517;DHT22;64097;52.548;13.406;2023-06-26T13:43:28;32.30;38.60
75517;DHT22;64097;52.548;13.406;2023-06-26T13:45:54;32.30;38.70
75517;DHT22;64097;52.548;13.406;2023-06-26T13:48:20;32.20;38.70
75517;DHT22;64097;52.548;13.406;2023-06-26T13:50:46;32.20;38.70
75517;DHT22;64097;52.548;13.406;2023-06-26T13:53:13;32.20;38.60
75517;DHT22;64097;52.548;13.406;2023-06-26T13:55:40;32.20;38.50
75517;DHT22;64097;52.548;13.406;2023-06-26T13:58:06;32.20;38.80
